Terminal Aerodrome Forecast
Issued by NWS

Home | Current Version | Previous Version | Text Only | Print | Product List | Glossary On
Versions: 1 2 3 4 5 6 7 8 9 10 11 12 13 14 15 16 17 18 19
000
FTUS43 KFGF 201900 AAA
TAFBJI
TAF AMD
KBJI 201900Z 2019/2118 35006KT P6SM SCT025
     FM210900 12006KT P6SM SCT200
     FM211600 14015KT P6SM SKC=

USA.gov is the U.S. government's official web portal to all federal, state and local government web resources and services.